createdAt,value
2019-03-09T00:01:58.922Z,9.75
2019-03-09T00:04:25.731Z,9.74
2019-03-09T00:06:52.486Z,9.74
2019-03-09T00:09:19.190Z,9.67
2019-03-09T00:11:46.153Z,9.65
2019-03-09T00:14:13.973Z,9.63
2019-03-09T00:16:40.698Z,9.70
2019-03-09T00:19:07.414Z,9.76
2019-03-09T00:21:34.177Z,9.74
2019-03-09T00:24:17.856Z,9.62
2019-03-09T00:27:07.217Z,9.63
2019-03-09T00:29:52.395Z,9.57
2019-03-09T00:32:21.995Z,9.48
2019-03-09T00:34:49.062Z,9.47
2019-03-09T00:37:15.879Z,9.59
2019-03-09T00:39:42.588Z,9.59
2019-03-09T00:42:09.353Z,9.59
2019-03-09T00:44:36.198Z,9.60
2019-03-09T00:47:02.975Z,9.63
2019-03-09T00:49:33.137Z,9.60
2019-03-09T00:52:00.122Z,9.59
2019-03-09T00:54:26.969Z,9.52
2019-03-09T00:56:53.693Z,9.58
2019-03-09T00:59:20.562Z,9.59
2019-03-09T01:01:47.446Z,9.61
2019-03-09T01:04:14.157Z,9.59
2019-03-09T01:06:40.871Z,9.63
2019-03-09T01:09:08.594Z,9.66
2019-03-09T01:11:35.352Z,9.68
2019-03-09T01:14:02.076Z,9.67
2019-03-09T01:16:29.141Z,9.72
2019-03-09T01:18:55.856Z,9.69
2019-03-09T01:21:22.605Z,9.74
2019-03-09T01:23:49.341Z,9.77
2019-03-09T01:26:16.084Z,9.73
2019-03-09T01:28:42.825Z,9.72
2019-03-09T01:31:09.541Z,9.70
2019-03-09T01:33:36.409Z,9.73
2019-03-09T01:36:03.140Z,9.73
2019-03-09T01:38:29.874Z,9.76
2019-03-09T01:40:56.570Z,9.75
2019-03-09T01:43:23.277Z,9.73
2019-03-09T01:45:49.981Z,9.72
2019-03-09T01:48:16.729Z,9.67
2019-03-09T01:50:43.474Z,9.67
2019-03-09T01:53:10.635Z,9.67
2019-03-09T01:55:37.480Z,9.72
2019-03-09T01:58:04.241Z,9.68
2019-03-09T02:00:30.961Z,9.68
2019-03-09T02:02:57.703Z,9.64
2019-03-09T02:05:24.438Z,9.70
2019-03-09T02:07:51.185Z,9.72
2019-03-09T02:10:17.922Z,9.70
2019-03-09T02:12:44.609Z,9.67
2019-03-09T02:15:11.476Z,9.69
2019-03-09T02:17:38.242Z,9.65
2019-03-09T02:20:05.116Z,9.62
2019-03-09T02:22:31.827Z,9.58
2019-03-09T02:24:58.531Z,9.56
2019-03-09T02:27:25.347Z,9.60
2019-03-09T02:29:52.052Z,9.53
2019-03-09T02:32:18.782Z,9.65
2019-03-09T02:34:45.517Z,9.54
2019-03-09T02:37:15.270Z,9.57
2019-03-09T02:39:50.085Z,9.63
2019-03-09T02:42:16.816Z,9.65
2019-03-09T02:44:43.560Z,9.62
2019-03-09T02:47:10.563Z,9.61
2019-03-09T02:49:37.278Z,9.57
2019-03-09T02:52:04.161Z,9.60
2019-03-09T02:54:30.873Z,9.56
2019-03-09T02:56:57.626Z,9.58
2019-03-09T02:59:24.340Z,9.61
2019-03-09T03:02:01.739Z,9.56
2019-03-09T03:04:29.124Z,9.57
2019-03-09T03:06:55.859Z,9.51
2019-03-09T03:09:22.646Z,9.47
2019-03-09T03:11:49.401Z,9.38
2019-03-09T03:14:16.115Z,9.33
2019-03-09T03:16:42.856Z,9.15
2019-03-09T03:19:09.588Z,9.23
2019-03-09T03:21:36.360Z,9.17
2019-03-09T03:24:03.114Z,9.03
2019-03-09T03:26:32.164Z,8.74
2019-03-09T03:28:58.898Z,8.85
2019-03-09T03:31:26.226Z,8.76
2019-03-09T03:33:53.264Z,8.81
2019-03-09T03:36:20.017Z,8.64
2019-03-09T03:38:46.784Z,8.66
2019-03-09T03:41:15.308Z,8.59
2019-03-09T03:43:42.075Z,8.58
2019-03-09T03:46:08.826Z,8.65
2019-03-09T03:48:36.701Z,8.54
2019-03-09T03:51:03.462Z,8.56
2019-03-09T03:53:30.827Z,8.57
2019-03-09T03:55:57.563Z,8.51
2019-03-09T03:58:24.319Z,8.55
2019-03-09T04:00:51.013Z,8.57
2019-03-09T04:03:17.746Z,8.57
2019-03-09T04:05:44.493Z,8.53
2019-03-09T04:08:11.191Z,8.57
2019-03-09T04:10:39.843Z,8.50
2019-03-09T04:13:06.553Z,8.54
2019-03-09T04:15:33.272Z,8.50
2019-03-09T04:18:00.329Z,8.45
2019-03-09T04:20:27.086Z,8.37
2019-03-09T04:22:53.838Z,8.44
2019-03-09T04:25:20.508Z,8.36
2019-03-09T04:27:47.251Z,8.33
2019-03-09T04:30:13.986Z,8.27
2019-03-09T04:32:40.712Z,8.22
2019-03-09T04:35:07.431Z,8.19
2019-03-09T04:37:34.523Z,8.10
2019-03-09T04:40:01.344Z,8.16
2019-03-09T04:42:28.098Z,8.20
2019-03-09T04:44:55.491Z,8.12
2019-03-09T04:47:22.216Z,8.20
2019-03-09T04:49:48.916Z,8.08
2019-03-09T04:52:17.875Z,8.13
2019-03-09T04:54:44.600Z,8.23
2019-03-09T04:57:11.310Z,8.29
2019-03-09T04:59:38.035Z,8.25
2019-03-09T05:02:04.739Z,8.31
2019-03-09T05:04:38.920Z,8.30
2019-03-09T05:07:05.617Z,8.20
2019-03-09T05:09:47.163Z,8.16
2019-03-09T05:12:14.227Z,8.17
2019-03-09T05:14:40.984Z,8.23
2019-03-09T05:17:07.738Z,8.23
2019-03-09T05:19:34.469Z,8.28
2019-03-09T05:22:03.085Z,8.25
2019-03-09T05:24:29.810Z,8.23
2019-03-09T05:26:56.525Z,8.30
2019-03-09T05:29:23.265Z,8.28
2019-03-09T05:31:50.015Z,8.26
2019-03-09T05:34:16.714Z,8.23
2019-03-09T05:36:43.448Z,8.28
2019-03-09T05:39:10.543Z,8.32
2019-03-09T05:41:37.268Z,8.27
2019-03-09T05:44:03.984Z,8.28
2019-03-09T05:46:30.754Z,8.35
2019-03-09T05:48:57.494Z,8.44
2019-03-09T05:51:24.242Z,8.37
2019-03-09T05:53:50.965Z,8.33
2019-03-09T05:56:17.713Z,8.40
2019-03-09T05:58:44.434Z,8.39
2019-03-09T06:01:11.152Z,8.40
2019-03-09T06:03:37.892Z,8.49
2019-03-09T06:06:13.116Z,8.55
2019-03-09T06:08:40.162Z,8.44
2019-03-09T06:11:08.676Z,8.43
2019-03-09T06:13:35.440Z,8.45
2019-03-09T06:16:02.176Z,8.48
2019-03-09T06:18:28.881Z,8.53
2019-03-09T06:20:55.622Z,8.61
2019-03-09T06:23:22.344Z,8.57
2019-03-09T06:25:49.124Z,8.55
2019-03-09T06:28:15.812Z,8.64
2019-03-09T06:30:42.566Z,8.65
2019-03-09T06:33:31.873Z,8.74
2019-03-09T06:36:23.280Z,8.74
2019-03-09T06:38:56.034Z,8.73
2019-03-09T06:42:07.519Z,8.73
2019-03-09T06:44:34.251Z,8.69
2019-03-09T06:47:00.986Z,8.74
2019-03-09T06:49:27.720Z,8.78
2019-03-09T06:51:54.467Z,8.86
2019-03-09T06:54:21.573Z,8.90
2019-03-09T06:56:48.287Z,8.97
2019-03-09T06:59:15.020Z,8.91
2019-03-09T07:01:41.760Z,9.02
2019-03-09T07:04:08.503Z,9.00
2019-03-09T07:06:36.466Z,8.98
2019-03-09T07:09:04.694Z,9.06
2019-03-09T07:11:31.407Z,9.10
2019-03-09T07:14:35.981Z,9.12
2019-03-09T07:17:02.738Z,9.17
2019-03-09T07:19:29.454Z,9.09
2019-03-09T07:21:56.161Z,9.08
2019-03-09T07:24:22.879Z,9.16
2019-03-09T07:26:51.674Z,9.22
2019-03-09T07:29:18.538Z,9.32
2019-03-09T07:31:47.749Z,9.35
2019-03-09T07:34:21.872Z,9.29
2019-03-09T07:36:48.585Z,9.27
2019-03-09T07:39:15.315Z,9.34
2019-03-09T07:41:42.040Z,9.37
2019-03-09T07:44:08.769Z,9.41
2019-03-09T07:46:36.687Z,9.44
2019-03-09T07:49:03.499Z,9.31
2019-03-09T07:51:30.241Z,9.35
2019-03-09T07:53:57.318Z,9.41
2019-03-09T07:56:24.017Z,9.40
2019-03-09T07:58:50.729Z,9.39
2019-03-09T08:01:17.431Z,9.51
2019-03-09T08:03:44.493Z,9.58
2019-03-09T08:06:13.144Z,9.64
2019-03-09T08:08:42.206Z,9.62
2019-03-09T08:11:08.915Z,9.58
2019-03-09T08:13:35.621Z,9.52
2019-03-09T08:16:02.589Z,9.59
2019-03-09T08:18:29.461Z,9.61
2019-03-09T08:20:56.202Z,9.61
2019-03-09T08:23:22.924Z,9.67
2019-03-09T08:25:49.633Z,9.75
2019-03-09T08:28:16.687Z,9.84
2019-03-09T08:30:43.624Z,9.83
2019-03-09T08:33:10.379Z,9.88
2019-03-09T08:35:37.177Z,9.92
2019-03-09T08:38:04.218Z,9.98
2019-03-09T08:40:30.904Z,9.86
2019-03-09T08:43:00.628Z,9.92
2019-03-09T08:45:29.385Z,9.93
2019-03-09T08:47:56.535Z,9.91
2019-03-09T08:50:23.255Z,9.84
2019-03-09T08:52:49.983Z,9.96
2019-03-09T08:55:18.817Z,9.98
2019-03-09T08:57:45.446Z,10.02
2019-03-09T09:00:17.409Z,9.94
2019-03-09T09:02:45.839Z,10.00
2019-03-09T09:05:13.077Z,9.92
2019-03-09T09:07:39.813Z,10.02
2019-03-09T09:10:06.535Z,9.97
2019-03-09T09:12:33.257Z,10.11
2019-03-09T09:15:00.016Z,10.09
2019-03-09T09:17:27.993Z,10.08
2019-03-09T09:19:54.696Z,10.17
2019-03-09T09:22:21.380Z,10.16
2019-03-09T09:24:48.092Z,10.15
2019-03-09T09:27:14.783Z,10.24
2019-03-09T09:29:42.672Z,10.15
2019-03-09T09:32:11.487Z,10.17
2019-03-09T09:34:38.205Z,10.15
2019-03-09T09:37:04.949Z,9.95
2019-03-09T09:39:32.189Z,9.99
2019-03-09T09:41:59.643Z,9.90
2019-03-09T09:44:26.859Z,9.98
2019-03-09T09:46:53.586Z,9.97
2019-03-09T09:49:20.466Z,9.97
2019-03-09T09:51:47.181Z,9.94
2019-03-09T09:54:13.974Z,9.98
2019-03-09T09:56:40.699Z,10.02
2019-03-09T09:59:07.400Z,10.11
2019-03-09T10:01:34.159Z,10.10
2019-03-09T10:04:00.889Z,10.15
2019-03-09T10:06:27.969Z,10.07
2019-03-09T10:08:54.946Z,10.10
2019-03-09T10:11:21.675Z,10.16
2019-03-09T10:13:52.041Z,10.20
2019-03-09T10:16:18.756Z,10.30
2019-03-09T10:18:45.493Z,10.31
2019-03-09T10:21:12.532Z,10.30
2019-03-09T10:23:39.250Z,10.45
2019-03-09T10:26:06.126Z,10.47
2019-03-09T10:28:34.748Z,10.53
2019-03-09T10:31:02.056Z,10.53
2019-03-09T10:33:28.944Z,10.60
2019-03-09T10:35:55.749Z,10.60
2019-03-09T10:38:22.493Z,10.53
2019-03-09T10:40:49.273Z,10.60
2019-03-09T10:43:16.041Z,10.63
2019-03-09T10:45:44.661Z,10.62
2019-03-09T10:48:11.743Z,10.51
2019-03-09T10:50:38.564Z,10.49
2019-03-09T10:53:05.266Z,10.50
2019-03-09T10:55:32.027Z,10.55
2019-03-09T10:57:58.726Z,10.69
2019-03-09T11:00:30.001Z,10.77
2019-03-09T11:02:56.782Z,10.80
2019-03-09T11:05:23.581Z,10.82
2019-03-09T11:07:50.336Z,10.82
2019-03-09T11:10:17.429Z,10.93
2019-03-09T11:12:44.240Z,10.95
2019-03-09T11:15:11.017Z,10.98
2019-03-09T11:17:37.700Z,10.87
2019-03-09T11:20:04.937Z,10.81
2019-03-09T11:22:31.769Z,10.79
2019-03-09T11:25:03.372Z,10.73
2019-03-09T11:27:27.916Z,10.83
2019-03-09T11:29:54.687Z,10.83
2019-03-09T11:32:21.452Z,10.77
2019-03-09T11:34:48.499Z,10.81
2019-03-09T11:37:15.257Z,10.91
2019-03-09T11:39:42.407Z,10.88
2019-03-09T11:42:11.083Z,10.95
2019-03-09T11:44:37.887Z,10.99
2019-03-09T11:47:04.677Z,11.11
2019-03-09T11:49:34.249Z,11.12
2019-03-09T11:52:01.350Z,11.10
2019-03-09T11:54:28.058Z,11.17
2019-03-09T11:56:54.807Z,11.20
2019-03-09T11:59:21.665Z,11.23
2019-03-09T12:01:48.412Z,11.28
2019-03-09T12:04:15.457Z,11.14
2019-03-09T12:06:42.536Z,11.15
2019-03-09T12:09:09.233Z,11.12
2019-03-09T12:11:37.693Z,11.15
2019-03-09T12:14:04.427Z,11.17
2019-03-09T12:16:31.144Z,11.17
2019-03-09T12:18:57.943Z,11.26
2019-03-09T12:21:24.676Z,11.21
2019-03-09T12:23:51.568Z,11.14
2019-03-09T12:26:20.919Z,11.10
2019-03-09T12:28:47.748Z,11.02
2019-03-09T12:31:15.211Z,11.04
2019-03-09T12:33:42.058Z,11.08
2019-03-09T12:36:08.858Z,11.17
2019-03-09T12:38:35.932Z,11.10
2019-03-09T12:41:02.756Z,11.17
2019-03-09T12:43:29.958Z,11.14
2019-03-09T12:45:56.696Z,11.11
2019-03-09T12:48:23.373Z,11.06
2019-03-09T12:50:50.180Z,11.01
2019-03-09T12:53:16.918Z,10.96
2019-03-09T12:55:43.692Z,10.95
2019-03-09T12:58:10.385Z,10.91
2019-03-09T13:00:37.111Z,10.76
2019-03-09T13:03:03.955Z,10.79
2019-03-09T13:05:33.458Z,10.66
2019-03-09T13:08:00.193Z,10.79
2019-03-09T13:10:27.144Z,10.81
2019-03-09T13:12:54.021Z,10.82
2019-03-09T13:15:21.192Z,10.86
2019-03-09T13:17:47.900Z,10.86
2019-03-09T13:20:14.951Z,10.92
2019-03-09T13:22:41.709Z,10.85
2019-03-09T13:25:08.667Z,10.84
2019-03-09T13:27:35.500Z,10.91
2019-03-09T13:30:02.414Z,11.04
2019-03-09T13:32:29.114Z,11.02
2019-03-09T13:34:55.841Z,11.07
2019-03-09T13:37:22.579Z,11.05
2019-03-09T13:39:51.958Z,11.02
2019-03-09T13:42:19.106Z,11.03
2019-03-09T13:44:45.794Z,10.98
2019-03-09T13:47:12.529Z,10.92
2019-03-09T13:49:39.264Z,11.02
2019-03-09T13:52:06.994Z,11.10
2019-03-09T13:54:33.924Z,11.18
2019-03-09T13:57:00.772Z,11.20
2019-03-09T13:59:27.555Z,11.33
2019-03-09T14:01:55.086Z,11.39
2019-03-09T14:04:21.902Z,11.42
2019-03-09T14:06:50.935Z,11.46
2019-03-09T14:09:18.205Z,11.48
2019-03-09T14:11:45.044Z,11.54
2019-03-09T14:14:12.093Z,11.55
2019-03-09T14:16:39.004Z,11.50
2019-03-09T14:19:05.746Z,11.51
2019-03-09T14:21:32.558Z,11.55
2019-03-09T14:24:03.762Z,11.50
2019-03-09T14:26:30.574Z,11.50
2019-03-09T14:28:57.542Z,11.39
2019-03-09T14:31:24.244Z,11.47
2019-03-09T14:33:50.921Z,11.41
2019-03-09T14:36:18.146Z,11.26
2019-03-09T14:38:44.868Z,11.16
2019-03-09T14:41:13.142Z,11.14
2019-03-09T14:43:39.927Z,11.16
2019-03-09T14:46:06.793Z,11.16
2019-03-09T14:48:33.744Z,11.19
2019-03-09T14:51:00.485Z,11.27
2019-03-09T14:53:27.212Z,11.27
2019-03-09T14:55:53.924Z,11.29
2019-03-09T14:58:20.802Z,11.40
2019-03-09T15:00:50.432Z,11.52
2019-03-09T15:03:17.148Z,11.76
2019-03-09T15:05:44.294Z,11.86
2019-03-09T15:08:11.328Z,11.95
2019-03-09T15:10:38.334Z,11.89
2019-03-09T15:13:05.202Z,11.85
2019-03-09T15:15:31.945Z,11.78
2019-03-09T15:17:58.708Z,11.79
2019-03-09T15:20:25.432Z,11.74
2019-03-09T15:22:52.312Z,11.77
2019-03-09T15:25:19.113Z,11.73
2019-03-09T15:27:46.451Z,11.71
2019-03-09T15:30:13.397Z,11.70
2019-03-09T15:32:40.142Z,11.74
2019-03-09T15:35:06.927Z,11.86
2019-03-09T15:37:33.663Z,11.87
2019-03-09T15:40:00.454Z,11.88
2019-03-09T15:42:27.808Z,11.92
2019-03-09T15:44:56.674Z,11.93
2019-03-09T15:47:23.527Z,11.93
2019-03-09T15:49:50.550Z,11.88
2019-03-09T15:52:17.489Z,11.87
2019-03-09T15:54:44.450Z,11.92
2019-03-09T15:57:11.515Z,11.93
2019-03-09T15:59:38.422Z,12.02
2019-03-09T16:02:08.306Z,11.95
2019-03-09T16:04:35.009Z,11.98
2019-03-09T16:07:05.161Z,11.99
2019-03-09T16:09:32.044Z,12.06
2019-03-09T16:11:58.868Z,12.05
2019-03-09T16:14:25.574Z,12.03
2019-03-09T16:16:52.300Z,12.08
2019-03-09T16:19:19.752Z,12.08
2019-03-09T16:21:46.534Z,12.01
2019-03-09T16:24:13.260Z,12.04
2019-03-09T16:26:40.004Z,12.04
2019-03-09T16:29:06.743Z,11.99
2019-03-09T16:31:33.462Z,12.00
2019-03-09T16:34:00.181Z,12.01
2019-03-09T16:36:26.888Z,12.01
2019-03-09T16:38:53.997Z,11.97
2019-03-09T16:41:20.767Z,12.04
2019-03-09T16:43:47.580Z,12.02
2019-03-09T16:46:14.313Z,12.00
2019-03-09T16:48:43.329Z,12.00
2019-03-09T16:51:10.145Z,11.98
2019-03-09T16:53:36.839Z,12.02
2019-03-09T16:56:03.802Z,12.01
2019-03-09T16:58:30.680Z,11.74
2019-03-09T17:00:57.416Z,12.01
2019-03-09T17:03:24.132Z,12.02
2019-03-09T17:05:50.848Z,12.00
2019-03-09T17:08:17.605Z,12.03
2019-03-09T17:10:44.313Z,12.02
2019-03-09T17:13:11.061Z,12.02
2019-03-09T17:15:37.861Z,11.98
2019-03-09T17:18:04.599Z,11.95
2019-03-09T17:20:31.299Z,11.92
2019-03-09T17:22:58.007Z,11.93
2019-03-09T17:25:24.691Z,11.89
2019-03-09T17:27:51.763Z,11.85
2019-03-09T17:30:18.486Z,11.85
2019-03-09T17:32:45.577Z,11.82
2019-03-09T17:35:12.539Z,11.84
2019-03-09T17:37:39.520Z,11.82
2019-03-09T17:40:06.830Z,11.80
2019-03-09T17:42:33.555Z,11.80
2019-03-09T17:45:00.366Z,11.78
2019-03-09T17:47:27.130Z,11.76
2019-03-09T17:49:53.820Z,11.75
2019-03-09T17:52:20.583Z,11.75
2019-03-09T17:54:47.781Z,11.79
2019-03-09T17:57:14.923Z,11.82
2019-03-09T17:59:41.634Z,11.73
2019-03-09T18:02:08.415Z,11.79
2019-03-09T18:04:35.133Z,11.81
2019-03-09T18:07:01.806Z,11.83
2019-03-09T18:09:30.280Z,11.85
2019-03-09T18:11:56.971Z,11.85
2019-03-09T18:14:23.680Z,11.87
2019-03-09T18:16:53.060Z,11.85
2019-03-09T18:19:21.609Z,11.83
2019-03-09T18:21:48.313Z,11.82
2019-03-09T18:24:17.984Z,11.80
2019-03-09T18:26:44.705Z,11.77
2019-03-09T18:29:11.451Z,11.78
2019-03-09T18:31:43.345Z,11.80
2019-03-09T18:34:10.053Z,11.51
2019-03-09T18:36:36.735Z,11.83
2019-03-09T18:39:07.326Z,11.82
2019-03-09T18:41:37.117Z,11.85
2019-03-09T18:44:03.831Z,11.86
2019-03-09T18:46:30.917Z,11.90
2019-03-09T18:49:03.643Z,11.85
2019-03-09T18:51:30.372Z,11.79
2019-03-09T18:53:57.310Z,11.75
2019-03-09T18:56:24.144Z,11.80
2019-03-09T18:58:50.826Z,11.84
2019-03-09T19:01:17.537Z,11.78
2019-03-09T19:03:44.263Z,11.79
2019-03-09T19:06:10.989Z,11.79
2019-03-09T19:08:37.773Z,11.79
2019-03-09T19:11:04.488Z,11.81
2019-03-09T19:13:31.587Z,11.87
2019-03-09T19:15:58.275Z,11.86
2019-03-09T19:18:25.003Z,11.89
2019-03-09T19:20:52.019Z,11.89
2019-03-09T19:23:18.769Z,11.91
2019-03-09T19:25:45.544Z,11.92
2019-03-09T19:28:12.235Z,11.89
2019-03-09T19:30:38.937Z,11.93
2019-03-09T19:33:05.655Z,11.94
2019-03-09T19:35:34.077Z,11.97
2019-03-09T19:38:01.439Z,11.93
2019-03-09T19:40:28.174Z,11.99
2019-03-09T19:42:54.887Z,11.98
2019-03-09T19:45:21.607Z,11.97
2019-03-09T19:47:53.638Z,11.95
2019-03-09T19:50:20.309Z,11.99
2019-03-09T19:52:47.047Z,12.00
2019-03-09T19:55:14.193Z,12.02
2019-03-09T19:57:41.195Z,12.01
2019-03-09T20:00:09.057Z,11.94
2019-03-09T20:02:37.509Z,11.93
2019-03-09T20:05:07.298Z,11.95
2019-03-09T20:07:33.787Z,11.98
2019-03-09T20:10:00.771Z,12.03
2019-03-09T20:12:27.811Z,11.96
2019-03-09T20:14:59.270Z,11.96
2019-03-09T20:17:27.503Z,11.99
2019-03-09T20:19:54.745Z,11.99
2019-03-09T20:22:21.553Z,12.00
2019-03-09T20:24:51.221Z,12.06
2019-03-09T20:27:17.973Z,11.97
2019-03-09T20:29:45.139Z,11.99
2019-03-09T20:32:11.923Z,11.94
2019-03-09T20:34:44.222Z,11.93
2019-03-09T20:37:10.937Z,11.98
2019-03-09T20:39:38.157Z,11.91
2019-03-09T20:42:18.503Z,11.95
2019-03-09T20:44:45.229Z,11.92
2019-03-09T20:47:11.940Z,11.91
2019-03-09T20:49:39.042Z,11.92
2019-03-09T20:52:05.763Z,11.96
2019-03-09T20:54:33.725Z,11.95
2019-03-09T20:57:00.647Z,11.97
2019-03-09T20:59:28.899Z,11.98
2019-03-09T21:01:56.724Z,11.98
2019-03-09T21:04:23.551Z,12.01
2019-03-09T21:06:50.320Z,12.02
2019-03-09T21:09:18.717Z,12.06
2019-03-09T21:11:45.448Z,12.06
2019-03-09T21:14:12.317Z,12.01
2019-03-09T21:16:41.569Z,12.03
2019-03-09T21:19:17.108Z,12.11
2019-03-09T21:21:45.892Z,12.11
2019-03-09T21:24:12.853Z,12.09
2019-03-09T21:26:39.991Z,12.04
2019-03-09T21:29:07.052Z,12.10
2019-03-09T21:31:33.757Z,12.09
2019-03-09T21:34:02.071Z,12.14
2019-03-09T21:36:28.784Z,12.05
2019-03-09T21:38:58.629Z,12.01
2019-03-09T21:41:25.862Z,12.07
2019-03-09T21:43:52.582Z,12.01
2019-03-09T21:46:19.292Z,12.01
2019-03-09T21:48:46.008Z,12.10
2019-03-09T21:51:22.462Z,12.09
2019-03-09T21:53:49.303Z,12.10
2019-03-09T21:56:20.208Z,12.04
2019-03-09T21:58:52.087Z,12.08
2019-03-09T22:01:19.089Z,12.06
2019-03-09T22:03:48.093Z,12.04
2019-03-09T22:06:14.949Z,11.99
2019-03-09T22:08:41.683Z,12.07
2019-03-09T22:11:09.637Z,12.06
2019-03-09T22:13:36.480Z,12.13
2019-03-09T22:16:03.319Z,12.05
2019-03-09T22:18:30.039Z,12.06
2019-03-09T22:20:56.754Z,12.16
2019-03-09T22:23:26.081Z,12.13
2019-03-09T22:25:52.935Z,12.09
2019-03-09T22:28:19.635Z,12.09
2019-03-09T22:30:49.243Z,12.06
2019-03-09T22:33:16.303Z,12.09
2019-03-09T22:35:43.053Z,12.10
2019-03-09T22:38:14.968Z,12.09
2019-03-09T22:40:41.523Z,12.13
2019-03-09T22:43:10.080Z,12.19
2019-03-09T22:45:36.901Z,12.17
2019-03-09T22:48:07.357Z,12.19
2019-03-09T22:50:36.367Z,12.17
2019-03-09T22:53:04.454Z,12.22
2019-03-09T22:55:37.139Z,12.25
2019-03-09T22:58:03.972Z,12.18
2019-03-09T23:00:35.950Z,12.24
2019-03-09T23:03:02.989Z,12.15
2019-03-09T23:05:31.051Z,12.15
2019-03-09T23:07:57.892Z,12.10
2019-03-09T23:10:24.834Z,12.05
2019-03-09T23:12:52.779Z,12.06
2019-03-09T23:15:21.182Z,12.08
2019-03-09T23:17:47.961Z,12.04
2019-03-09T23:20:15.088Z,12.00
2019-03-09T23:22:42.226Z,12.00
2019-03-09T23:25:08.942Z,12.00
2019-03-09T23:27:35.637Z,12.00
2019-03-09T23:30:03.614Z,12.07
2019-03-09T23:32:32.871Z,12.01
2019-03-09T23:35:01.473Z,12.07
2019-03-09T23:37:28.406Z,12.04
2019-03-09T23:39:56.512Z,11.97
2019-03-09T23:42:26.140Z,12.02
2019-03-09T23:44:52.871Z,12.00
2019-03-09T23:47:19.710Z,12.05
2019-03-09T23:49:46.436Z,11.95
2019-03-09T23:52:13.524Z,11.90
2019-03-09T23:54:40.233Z,11.98
2019-03-09T23:57:08.097Z,11.98
2019-03-09T23:59:34.808Z,12.00
